createdAt,value
2023-02-04T00:00:55.604Z,99238.41
2023-02-04T00:03:24.892Z,99242.81
2023-02-04T00:05:54.079Z,99241.16
2023-02-04T00:08:23.390Z,99243.66
2023-02-04T00:10:54.641Z,99214.44
2023-02-04T00:13:23.846Z,99244.63
2023-02-04T00:15:52.965Z,99246.16
2023-02-04T00:18:22.321Z,99247.94
2023-02-04T00:20:51.448Z,99231.41
2023-02-04T00:23:20.532Z,99256.25
2023-02-04T00:25:49.940Z,99257.06
2023-02-04T00:28:21.491Z,99233.84
2023-02-04T00:30:55.699Z,99258.81
2023-02-04T00:33:25.017Z,99262.16
2023-02-04T00:35:54.062Z,99261.31
2023-02-04T00:38:23.504Z,99263.09
2023-02-04T00:40:52.922Z,99238.13
2023-02-04T00:43:29.172Z,99261.38
2023-02-04T00:46:03.668Z,99255.34
2023-02-04T00:48:34.289Z,99266.41
2023-02-04T00:51:06.822Z,99258.75
2023-02-04T00:53:35.612Z,99264.78
2023-02-04T00:56:04.880Z,99262.06
2023-02-04T00:58:35.990Z,99257.63
2023-02-04T01:01:05.796Z,99274.00
2023-02-04T01:03:34.945Z,99270.44
2023-02-04T01:06:04.265Z,99258.34
2023-02-04T01:08:38.341Z,99255.00
2023-02-04T01:11:07.853Z,99291.03
2023-02-04T01:13:38.967Z,99288.50
2023-02-04T01:16:08.403Z,99292.78
2023-02-04T01:18:37.815Z,99297.09
2023-02-04T01:21:07.486Z,99298.00
2023-02-04T01:23:37.058Z,99295.41
2023-02-04T01:26:11.119Z,99304.66
2023-02-04T01:28:42.321Z,99295.13
2023-02-04T01:31:17.038Z,99293.41
2023-02-04T01:33:52.529Z,99283.88
2023-02-04T01:36:21.868Z,99288.28
2023-02-04T01:38:51.455Z,99284.13
2023-02-04T01:41:26.358Z,99301.25
2023-02-04T01:43:57.632Z,99312.28
2023-02-04T01:46:27.317Z,99307.97
2023-02-04T01:48:56.619Z,99307.97
2023-02-04T01:54:13.842Z,99316.47
2023-02-04T01:56:51.176Z,99312.16
2023-02-04T01:59:27.776Z,99315.47
2023-02-04T02:01:56.999Z,99302.63
2023-02-04T02:04:33.287Z,99325.00
2023-02-04T02:07:09.483Z,99310.44
2023-02-04T02:09:38.717Z,99329.34
2023-02-04T02:12:09.591Z,99335.28
2023-02-04T02:14:45.778Z,99335.28
2023-02-04T02:17:19.899Z,99333.50
2023-02-04T02:19:49.323Z,99340.34
2023-02-04T02:22:25.612Z,99339.38
2023-02-04T02:25:02.299Z,99339.41
2023-02-04T02:27:32.157Z,99344.41
2023-02-04T02:30:01.673Z,99324.59
2023-02-04T02:32:32.950Z,99346.16
2023-02-04T02:35:02.195Z,99345.31
2023-02-04T02:37:34.717Z,99339.28
2023-02-04T02:40:12.783Z,99346.91
2023-02-04T02:42:44.579Z,99355.19
2023-02-04T02:45:25.222Z,99344.88
2023-02-04T02:47:54.914Z,99362.66
2023-02-04T02:50:27.785Z,99365.28
2023-02-04T02:53:04.237Z,99323.06
2023-02-04T02:55:35.927Z,99346.22
2023-02-04T02:58:07.285Z,99364.16
2023-02-04T03:00:36.437Z,99365.84
2023-02-04T03:03:15.551Z,99368.34
2023-02-04T03:05:48.444Z,99351.09
2023-02-04T03:08:19.095Z,99344.22
2023-02-04T03:10:50.734Z,99358.91
2023-02-04T03:13:20.994Z,99372.69
2023-02-04T03:15:51.593Z,99381.25
2023-02-04T03:18:22.595Z,99373.69
2023-02-04T03:20:53.239Z,99380.50
2023-02-04T03:23:22.886Z,99388.09
2023-02-04T03:25:54.192Z,99389.84
2023-02-04T03:28:23.353Z,99386.50
2023-02-04T03:33:35.622Z,99389.13
2023-02-04T03:36:04.860Z,99391.88
2023-02-04T03:38:34.349Z,99399.63
2023-02-04T03:41:11.570Z,99386.75
2023-02-04T03:43:40.818Z,99402.19
2023-02-04T03:46:10.583Z,99397.91
2023-02-04T03:48:39.828Z,99394.50
2023-02-04T03:51:18.802Z,99407.41
2023-02-04T03:53:48.046Z,99409.97
2023-02-04T03:56:22.217Z,99404.81
2023-02-04T03:58:51.590Z,99415.94
2023-02-04T04:01:20.703Z,99418.47
2023-02-04T04:06:24.897Z,99415.94
2023-02-04T04:08:53.923Z,99395.38
2023-02-04T04:11:31.116Z,99424.50
2023-02-04T04:14:00.921Z,99418.56
2023-02-04T04:16:30.041Z,99424.47
2023-02-04T04:18:59.626Z,99426.91
2023-02-04T04:21:28.801Z,99419.91
2023-02-04T04:24:09.818Z,99428.56
2023-02-04T04:26:41.222Z,99430.19
2023-02-04T04:29:10.389Z,99440.47
2023-02-04T04:31:39.648Z,99436.16
2023-02-04T04:34:08.837Z,99443.84
2023-02-04T04:36:37.922Z,99437.53
2023-02-04T04:39:07.093Z,99409.78
2023-02-04T04:41:36.130Z,99383.91
2023-02-04T04:44:09.707Z,99438.09
2023-02-04T04:46:40.243Z,99442.63
2023-02-04T04:49:09.914Z,99434.88
2023-02-04T04:51:39.000Z,99443.47
2023-02-04T04:54:08.267Z,99422.81
2023-02-04T04:56:43.391Z,99447.84
2023-02-04T04:59:14.558Z,99436.78
2023-02-04T05:01:44.280Z,99449.63
2023-02-04T05:04:13.687Z,99450.41
2023-02-04T05:06:42.779Z,99449.50
2023-02-04T05:09:12.009Z,99461.47
2023-02-04T05:11:41.208Z,99451.13
2023-02-04T05:14:10.412Z,99468.28
2023-02-04T05:16:41.394Z,99442.47
2023-02-04T05:19:10.597Z,99464.09
2023-02-04T05:21:39.710Z,99469.19
2023-02-04T05:26:44.043Z,99476.91
2023-02-04T05:29:13.039Z,99475.22
2023-02-04T05:31:44.474Z,99471.69
2023-02-04T05:34:13.808Z,99485.47
2023-02-04T05:36:42.957Z,99491.16
2023-02-04T05:39:12.155Z,99489.34
2023-02-04T05:41:41.381Z,99490.91
2023-02-04T05:44:11.132Z,99499.50
2023-02-04T05:46:40.569Z,99502.94
2023-02-04T05:49:11.621Z,99507.19
2023-02-04T05:51:45.985Z,99513.78
2023-02-04T05:54:20.370Z,99516.31
2023-02-04T05:56:56.355Z,99508.56
2023-02-04T05:59:25.505Z,99516.31
2023-02-04T06:01:54.517Z,99512.56
2023-02-04T06:04:30.779Z,99531.50
2023-02-04T06:07:00.394Z,99540.03
2023-02-04T06:09:29.545Z,99537.53
2023-02-04T06:11:58.755Z,99553.75
2023-02-04T06:14:27.824Z,99541.97
2023-02-04T06:16:57.114Z,99553.00
2023-02-04T06:19:26.403Z,99551.38
2023-02-04T06:21:57.460Z,99530.16
2023-02-04T06:24:26.839Z,99561.41
2023-02-04T06:26:58.074Z,99563.25
2023-02-04T06:29:32.287Z,99568.50
2023-02-04T06:32:01.537Z,99565.06
2023-02-04T06:34:35.798Z,99567.75
2023-02-04T06:37:06.890Z,99546.66
2023-02-04T06:39:36.226Z,99570.94
2023-02-04T06:42:06.066Z,99531.50
2023-02-04T06:44:35.512Z,99579.56
2023-02-04T06:47:09.880Z,99568.28
2023-02-04T06:49:39.371Z,99574.06
2023-02-04T06:52:10.608Z,99595.31
2023-02-04T06:54:40.192Z,99580.16
2023-02-04T06:57:09.285Z,99587.88
2023-02-04T06:59:40.130Z,99586.41
2023-02-04T07:02:11.051Z,99584.53
2023-02-04T07:04:41.629Z,99598.88
2023-02-04T07:07:12.928Z,99605.31
2023-02-04T07:09:42.232Z,99597.81
2023-02-04T07:12:11.340Z,99600.22
2023-02-04T07:14:40.565Z,99614.88
2023-02-04T07:17:09.722Z,99600.75
2023-02-04T07:19:39.136Z,99611.59
2023-02-04T07:22:08.304Z,99607.41
2023-02-04T07:24:39.713Z,99613.78
2023-02-04T07:27:08.986Z,99622.44
2023-02-04T07:29:37.986Z,99619.63
2023-02-04T07:32:07.504Z,99621.41
2023-02-04T07:34:36.783Z,99590.44
2023-02-04T07:37:06.017Z,99618.78
2023-02-04T07:39:35.106Z,99633.91
2023-02-04T07:42:06.213Z,99630.41
2023-02-04T07:44:45.106Z,99610.72
2023-02-04T07:47:14.756Z,99631.25
2023-02-04T07:49:44.404Z,99631.16
2023-02-04T07:52:14.049Z,99637.31
2023-02-04T07:54:43.244Z,99621.97
2023-02-04T07:57:14.251Z,99635.53
2023-02-04T07:59:43.426Z,99621.28
2023-02-04T08:02:20.354Z,99637.72
2023-02-04T08:04:49.950Z,99647.22
2023-02-04T08:07:19.108Z,99647.47
2023-02-04T08:09:48.516Z,99648.47
2023-02-04T08:12:19.648Z,99647.16
2023-02-04T08:14:48.884Z,99640.59
2023-02-04T08:17:17.993Z,99628.75
2023-02-04T08:19:47.119Z,99654.75
2023-02-04T08:22:16.359Z,99649.00
2023-02-04T08:24:45.542Z,99651.75
2023-02-04T08:27:14.704Z,99648.63
2023-02-04T08:29:51.184Z,99661.59
2023-02-04T08:32:26.574Z,99669.19
2023-02-04T08:35:06.592Z,99667.38
2023-02-04T08:37:36.199Z,99655.25
2023-02-04T08:40:05.894Z,99653.28
2023-02-04T08:42:35.313Z,99622.03
2023-02-04T08:45:07.025Z,99674.47
2023-02-04T08:47:38.983Z,99654.91
2023-02-04T08:50:09.514Z,99680.59
2023-02-04T08:52:38.719Z,99676.41
2023-02-04T08:55:15.550Z,99679.25
2023-02-04T08:57:44.699Z,99681.97
2023-02-04T09:00:18.356Z,99685.44
2023-02-04T09:02:57.653Z,99684.41
2023-02-04T09:05:26.954Z,99681.31
2023-02-04T09:07:56.544Z,99688.03
2023-02-04T09:10:25.723Z,99688.84
2023-02-04T09:12:55.707Z,99667.91
2023-02-04T09:15:27.585Z,99692.25
2023-02-04T09:18:11.133Z,99690.13
2023-02-04T09:20:40.428Z,99692.88
2023-02-04T09:23:11.616Z,99643.59
2023-02-04T09:25:41.073Z,99692.81
2023-02-04T09:28:12.154Z,99687.72
2023-02-04T09:30:45.808Z,99688.03
2023-02-04T09:33:17.399Z,99696.25
2023-02-04T09:35:51.491Z,99699.06
2023-02-04T09:38:21.760Z,99669.97
2023-02-04T09:40:56.557Z,99660.56
2023-02-04T09:43:33.635Z,99654.06
2023-02-04T09:46:05.415Z,99696.53
2023-02-04T09:48:34.465Z,99705.13
2023-02-04T09:51:07.745Z,99705.06
2023-02-04T09:53:47.325Z,99717.94
2023-02-04T09:56:16.868Z,99715.94
2023-02-04T09:58:46.372Z,99710.88
2023-02-04T10:01:20.447Z,99717.16
2023-02-04T10:03:51.833Z,99679.41
2023-02-04T10:06:23.127Z,99718.25
2023-02-04T10:08:53.980Z,99718.19
2023-02-04T10:11:29.570Z,99731.72
2023-02-04T10:13:58.921Z,99724.88
2023-02-04T10:16:33.517Z,99729.78
2023-02-04T10:19:09.532Z,99732.06
2023-02-04T10:21:45.926Z,99696.84
2023-02-04T10:24:18.101Z,99741.88
2023-02-04T11:29:38.358Z,99778.03
2023-02-04T11:32:14.846Z,99731.31
2023-02-04T11:34:51.115Z,99783.81
2023-02-04T11:37:39.519Z,99784.72
2023-02-04T11:40:25.249Z,99788.47
2023-02-04T11:43:03.256Z,99788.81
2023-02-04T11:45:46.564Z,99783.41
2023-02-04T11:48:19.761Z,99743.69
2023-02-04T11:50:57.574Z,99782.16
2023-02-04T11:53:30.695Z,99796.44
2023-02-04T11:56:00.543Z,99795.75
2023-02-04T11:58:31.937Z,99779.72
2023-02-04T12:01:03.183Z,99812.66
2023-02-04T12:03:34.583Z,99821.41
2023-02-04T12:06:04.573Z,99816.94
2023-02-04T12:08:36.059Z,99824.69
2023-02-04T12:11:10.747Z,99825.56
2023-02-04T12:13:49.125Z,99834.44
2023-02-04T12:16:23.032Z,99789.59
2023-02-04T12:18:52.868Z,99824.00
2023-02-04T12:21:22.486Z,99819.44
2023-02-04T12:23:57.517Z,99830.72
2023-02-04T12:26:26.706Z,99821.25
2023-02-04T12:28:57.003Z,99841.84
2023-02-04T12:31:28.280Z,99847.63
2023-02-04T12:33:57.934Z,99829.00
2023-02-04T12:36:29.309Z,99735.88
2023-02-04T12:38:59.503Z,99801.91
2023-02-04T12:41:28.982Z,99839.19
2023-02-04T12:43:58.099Z,99836.09
2023-02-04T12:53:53.042Z,99863.53
2023-02-04T12:56:23.790Z,99857.31
2023-02-04T12:58:53.854Z,99869.31
2023-02-04T13:01:22.937Z,99843.28
2023-02-04T13:03:51.998Z,99872.41
2023-02-04T13:06:21.290Z,99885.34
2023-02-04T13:08:52.436Z,99882.84
2023-02-04T13:11:26.731Z,99883.53
2023-02-04T13:13:55.839Z,99865.25
2023-02-04T13:16:25.826Z,99894.56
2023-02-04T13:18:54.908Z,99893.69
2023-02-04T13:21:28.352Z,99876.31
2023-02-04T13:23:59.667Z,99897.19
2023-02-04T13:26:29.160Z,99890.97
2023-02-04T13:28:58.169Z,99885.69
2023-02-04T13:31:27.585Z,99899.31
2023-02-04T13:33:56.681Z,99893.88
2023-02-04T13:36:27.366Z,99909.50
2023-02-04T13:38:59.831Z,99905.03
2023-02-04T13:41:35.699Z,99880.53
2023-02-04T13:44:10.076Z,99840.81
2023-02-04T13:46:39.312Z,99902.06
2023-02-04T13:49:10.107Z,99905.19
2023-02-04T13:51:39.461Z,99918.66
2023-02-04T13:54:10.859Z,99912.50
2023-02-04T13:56:40.721Z,99896.63
2023-02-04T13:59:10.025Z,99924.34
2023-02-04T14:01:39.391Z,99932.75
2023-02-04T14:04:08.544Z,99929.09
2023-02-04T14:06:43.067Z,99929.66
2023-02-04T14:09:14.613Z,99923.16
2023-02-04T14:11:44.228Z,99866.75
2023-02-04T14:14:13.359Z,99946.94
2023-02-04T14:16:42.839Z,99941.03
2023-02-04T14:19:23.807Z,99953.03
2023-02-04T14:21:53.694Z,99950.50
2023-02-04T14:24:25.290Z,99959.09
2023-02-04T14:26:55.769Z,99949.03
2023-02-04T14:29:24.856Z,99966.09
2023-02-04T14:31:54.028Z,99928.00
2023-02-04T14:34:23.072Z,99977.75
2023-02-04T14:39:33.842Z,99969.44
2023-02-04T14:42:04.875Z,99986.25
2023-02-04T14:44:34.043Z,99971.09
2023-02-04T14:47:03.111Z,99961.66
2023-02-04T14:49:36.843Z,99988.13
2023-02-04T14:52:06.844Z,99979.59
2023-02-04T14:54:38.165Z,99993.28
2023-02-04T14:57:10.850Z,99993.13
2023-02-04T14:59:40.083Z,99992.97
2023-02-04T15:02:09.264Z,99993.56
2023-02-04T15:04:43.592Z,99998.75
2023-02-04T15:07:26.688Z,100002.34
2023-02-04T15:10:02.961Z,100000.28
2023-02-04T15:12:33.108Z,100005.78
2023-02-04T15:15:02.253Z,99952.09
2023-02-04T15:17:36.629Z,100014.78
2023-02-04T15:20:08.144Z,100011.44
2023-02-04T15:22:39.610Z,100014.78
2023-02-04T15:25:11.878Z,100014.56
2023-02-04T15:27:47.071Z,100022.03
2023-02-04T15:30:16.414Z,99976.88
2023-02-04T15:32:47.162Z,100023.78
2023-02-04T15:35:19.154Z,100027.16
2023-02-04T15:38:14.289Z,100029.03
2023-02-04T15:40:45.499Z,100003.69
2023-02-04T15:43:14.634Z,100037.88
2023-02-04T15:45:43.967Z,100032.84
2023-02-04T15:48:19.279Z,100035.22
2023-02-04T15:50:48.411Z,100038.78
2023-02-04T15:53:17.967Z,100025.00
2023-02-04T15:55:54.285Z,100050.69
2023-02-04T15:58:23.543Z,100043.00
2023-02-04T16:00:52.736Z,100037.81
2023-02-04T16:03:27.033Z,100028.28
2023-02-04T16:05:57.086Z,100046.56
2023-02-04T16:08:31.423Z,100051.84
2023-02-04T16:11:02.437Z,100049.63
2023-02-04T16:13:31.712Z,100032.81
2023-02-04T16:16:00.863Z,100054.91
2023-02-04T16:18:33.841Z,100059.16
2023-02-04T16:21:02.943Z,100067.59
2023-02-04T16:26:18.786Z,100048.72
2023-02-04T16:28:48.335Z,100046.81
2023-02-04T16:31:17.766Z,100041.94
2023-02-04T16:33:46.992Z,100072.78
2023-02-04T16:36:18.258Z,100082.84
2023-02-04T16:38:47.974Z,100089.56
2023-02-04T16:41:21.325Z,100085.22
2023-02-04T16:43:50.719Z,100066.13
2023-02-04T16:46:20.021Z,100070.41
2023-02-04T16:48:49.490Z,100087.78
2023-02-04T16:51:20.005Z,100104.38
2023-02-04T16:53:50.017Z,100085.72
2023-02-04T16:56:21.165Z,100088.03
2023-02-04T16:58:50.354Z,100095.34
2023-02-04T17:01:19.567Z,100103.84
2023-02-04T17:03:48.773Z,100084.63
2023-02-04T17:06:18.521Z,100093.13
2023-02-04T17:08:47.744Z,100107.69
2023-02-04T17:11:31.983Z,100092.66
2023-02-04T17:14:05.572Z,100098.00
2023-02-04T17:16:35.122Z,100082.94
2023-02-04T17:19:05.065Z,100090.00
2023-02-04T17:21:37.606Z,100120.28
2023-02-04T17:24:07.409Z,100104.34
2023-02-04T17:26:39.583Z,100129.06
2023-02-04T17:29:21.497Z,100121.66
2023-02-04T17:31:52.371Z,100105.03
2023-02-04T17:34:21.773Z,100104.22
2023-02-04T17:36:51.074Z,100037.09
2023-02-04T17:39:20.300Z,100127.59
2023-02-04T17:41:49.376Z,100134.25
2023-02-04T17:44:23.988Z,100109.88
2023-02-04T17:46:54.156Z,100132.53
2023-02-04T17:49:23.483Z,100140.22
2023-02-04T17:51:52.714Z,100133.22
2023-02-04T17:54:21.984Z,100125.31
2023-02-04T17:56:52.518Z,100122.25
2023-02-04T17:59:23.838Z,100103.41
2023-02-04T18:01:53.295Z,100142.34
2023-02-04T18:04:22.661Z,100127.31
2023-02-04T18:06:58.977Z,100149.28
2023-02-04T18:09:28.899Z,100140.16
2023-02-04T18:12:14.783Z,100137.03
2023-02-04T18:14:51.807Z,100159.19
2023-02-04T18:17:21.219Z,100150.09
2023-02-04T18:19:51.659Z,100106.28
2023-02-04T18:22:25.602Z,100155.84
2023-02-04T18:24:57.388Z,100135.97
2023-02-04T18:27:33.070Z,100071.94
2023-02-04T18:30:04.219Z,100136.97
2023-02-04T18:32:38.998Z,100061.69
2023-02-04T18:35:36.358Z,100158.41
2023-02-04T18:38:17.704Z,100172.50
2023-02-04T18:40:46.840Z,100139.03
2023-02-04T18:43:29.996Z,100162.69
2023-02-04T18:46:24.515Z,100146.09
2023-02-04T18:52:17.324Z,100188.03
2023-02-04T18:54:57.630Z,100158.28
2023-02-04T19:00:32.330Z,100183.69
2023-02-04T19:03:21.793Z,100182.72
2023-02-04T19:05:51.505Z,100204.50
2023-02-04T19:08:26.757Z,100194.22
2023-02-04T19:10:57.750Z,100187.16
2023-02-04T19:13:29.083Z,100192.38
2023-02-04T19:16:02.728Z,100201.28
2023-02-04T19:18:41.473Z,100193.25
2023-02-04T19:21:24.887Z,100202.78
2023-02-04T19:23:58.193Z,100217.03
2023-02-04T19:26:34.145Z,100214.66
2023-02-04T19:29:03.481Z,100211.28
2023-02-04T19:31:35.571Z,100219.63
2023-02-04T19:34:22.978Z,100220.59
2023-02-04T19:36:52.871Z,100221.63
2023-02-04T19:39:32.331Z,100237.75
2023-02-04T19:42:02.861Z,100228.28
2023-02-04T19:44:39.542Z,100224.50
2023-02-04T19:47:25.570Z,100215.94
2023-02-04T19:50:03.432Z,100197.66
2023-02-04T19:52:38.307Z,100221.38
2023-02-04T19:55:37.174Z,100222.38
2023-02-04T19:58:18.070Z,100237.19
2023-02-04T20:00:52.692Z,100201.56
2023-02-04T20:03:30.863Z,100249.84
2023-02-04T20:06:22.108Z,100240.59
2023-02-04T20:08:57.247Z,100244.19
2023-02-04T20:11:44.869Z,100254.59
2023-02-04T20:14:51.609Z,100243.22
2023-02-04T20:17:35.965Z,100242.03
2023-02-04T20:20:28.914Z,100261.31
2023-02-04T20:23:01.838Z,100241.59
2023-02-04T20:25:39.816Z,100255.50
2023-02-04T20:28:40.319Z,100273.66
2023-02-04T20:31:28.256Z,100264.03
2023-02-04T20:33:59.587Z,100236.59
2023-02-04T20:36:44.162Z,100277.50
2023-02-04T20:39:36.764Z,100266.09
2023-02-04T20:42:33.644Z,100266.53
2023-02-04T20:45:34.314Z,100263.16
2023-02-04T20:48:28.257Z,100268.38
2023-02-04T20:51:00.926Z,100277.00
2023-02-04T20:53:32.052Z,100273.56
2023-02-04T20:56:17.628Z,100272.13
2023-02-04T20:58:48.047Z,100280.03
2023-02-04T21:01:24.369Z,100276.94
2023-02-04T21:03:53.733Z,100255.97
2023-02-04T21:06:29.374Z,100284.31
2023-02-04T21:09:00.016Z,100253.75
2023-02-04T21:11:31.444Z,100263.66
2023-02-04T21:14:05.729Z,100289.25
2023-02-04T21:16:35.227Z,100285.50
2023-02-04T21:19:06.246Z,100287.69
2023-02-04T21:21:35.989Z,100232.94
2023-02-04T21:24:05.261Z,100239.03
2023-02-04T21:26:38.108Z,100289.06
2023-02-04T21:29:07.942Z,100300.78
2023-02-04T21:31:37.510Z,100297.13
2023-02-04T21:34:06.836Z,100265.59
2023-02-04T21:36:36.188Z,100297.59
2023-02-04T21:39:16.675Z,100268.00
2023-02-04T21:42:08.231Z,100300.97
2023-02-04T21:44:47.512Z,100256.31
2023-02-04T21:47:17.269Z,100293.16
2023-02-04T21:49:52.102Z,100299.44
2023-02-04T21:52:21.380Z,100306.44
2023-02-04T21:54:50.511Z,100285.59
2023-02-04T21:57:21.579Z,100305.97
2023-02-04T21:59:50.800Z,100314.34
2023-02-04T22:02:19.879Z,100315.59
2023-02-04T22:04:51.469Z,100330.78
2023-02-04T22:07:21.283Z,100319.94
2023-02-04T22:09:50.468Z,100326.28
2023-02-04T22:12:27.345Z,100340.94
2023-02-04T22:15:04.279Z,100349.91
2023-02-04T22:20:09.537Z,100347.16
2023-02-04T22:22:38.542Z,100350.56
2023-02-04T22:25:08.388Z,100347.88
2023-02-04T22:27:40.733Z,100361.97
2023-02-04T22:30:20.163Z,100360.31
2023-02-04T22:32:49.400Z,100339.31
2023-02-04T22:35:19.313Z,100336.25
2023-02-04T22:37:49.531Z,100363.53
2023-02-04T22:40:18.933Z,100348.56
2023-02-04T22:43:00.162Z,100365.63
2023-02-04T22:45:34.566Z,100360.41
2023-02-04T22:48:03.990Z,100373.81
2023-02-04T22:50:33.209Z,100378.94
2023-02-04T22:53:08.415Z,100368.72
2023-02-04T22:55:37.447Z,100382.47
2023-02-04T22:58:08.829Z,100387.09
2023-02-04T23:00:38.085Z,100384.88
2023-02-04T23:03:07.670Z,100389.56
2023-02-04T23:05:37.225Z,100391.41
2023-02-04T23:08:06.775Z,100376.09
2023-02-04T23:10:38.096Z,100384.91
2023-02-04T23:13:10.314Z,100369.13
2023-02-04T23:15:40.460Z,100399.59
2023-02-04T23:18:09.578Z,100375.25
2023-02-04T23:20:41.291Z,100383.66
2023-02-04T23:23:16.797Z,100373.81
2023-02-04T23:25:51.532Z,100389.69
2023-02-04T23:28:22.916Z,100379.91
2023-02-04T23:30:58.211Z,100401.44
2023-02-04T23:33:27.632Z,100372.84
2023-02-04T23:35:56.844Z,100378.72
2023-02-04T23:38:26.204Z,100402.59
2023-02-04T23:40:56.697Z,100378.31
2023-02-04T23:43:28.153Z,100397.44
2023-02-04T23:45:59.581Z,100413.53
2023-02-04T23:48:29.077Z,100398.63
2023-02-04T23:50:58.836Z,100374.91
2023-02-04T23:53:27.924Z,100404.03
2023-02-04T23:55:57.016Z,100395.28
2023-02-04T23:58:28.405Z,100402.56
